sensor_id;sensor_type;location;lat;lon;timestamp;temperature;humidity
34927;DHT22;21132;48.308;14.274;2022-12-10T00:01:05;7.20;65.20
34927;DHT22;21132;48.308;14.274;2022-12-10T00:03:31;7.30;66.10
34927;DHT22;21132;48.308;14.274;2022-12-10T00:06:05;7.30;65.20
34927;DHT22;21132;48.308;14.274;2022-12-10T00:08:32;7.30;65.10
34927;DHT22;21132;48.308;14.274;2022-12-10T00:10:59;7.30;65.00
34927;DHT22;21132;48.308;14.274;2022-12-10T00:13:25;7.30;65.00
34927;DHT22;21132;48.308;14.274;2022-12-10T00:15:51;7.30;64.90
34927;DHT22;21132;48.308;14.274;2022-12-10T00:18:16;7.30;64.90
34927;DHT22;21132;48.308;14.274;2022-12-10T00:20:42;7.30;64.90
34927;DHT22;21132;48.308;14.274;2022-12-10T00:23:08;7.30;64.80
34927;DHT22;21132;48.308;14.274;2022-12-10T00:25:34;7.20;64.70
34927;DHT22;21132;48.308;14.274;2022-12-10T00:28:00;7.20;64.70
34927;DHT22;21132;48.308;14.274;2022-12-10T00:30:25;7.20;64.80
34927;DHT22;21132;48.308;14.274;2022-12-10T00:32:51;7.20;64.80
34927;DHT22;21132;48.308;14.274;2022-12-10T00:35:17;7.20;64.80
34927;DHT22;21132;48.308;14.274;2022-12-10T00:37:43;7.20;64.90
34927;DHT22;21132;48.308;14.274;2022-12-10T00:40:09;7.20;65.00
34927;DHT22;21132;48.308;14.274;2022-12-10T00:42:38;7.20;65.10
34927;DHT22;21132;48.308;14.274;2022-12-10T00:45:05;7.20;65.10
34927;DHT22;21132;48.308;14.274;2022-12-10T00:47:31;7.30;65.20
34927;DHT22;21132;48.308;14.274;2022-12-10T00:49:56;7.30;65.10
34927;DHT22;21132;48.308;14.274;2022-12-10T00:52:22;7.30;65.10
34927;DHT22;21132;48.308;14.274;2022-12-10T00:54:48;7.30;65.00
34927;DHT22;21132;48.308;14.274;2022-12-10T00:57:14;7.30;65.00
34927;DHT22;21132;48.308;14.274;2022-12-10T00:59:40;7.30;64.90
34927;DHT22;21132;48.308;14.274;2022-12-10T01:02:05;7.30;64.80
34927;DHT22;21132;48.308;14.274;2022-12-10T01:04:31;7.40;64.90
34927;DHT22;21132;48.308;14.274;2022-12-10T01:06:57;7.30;64.80
34927;DHT22;21132;48.308;14.274;2022-12-10T01:09:27;7.40;64.90
34927;DHT22;21132;48.308;14.274;2022-12-10T01:11:55;7.40;64.90
34927;DHT22;21132;48.308;14.274;2022-12-10T01:14:25;7.40;64.90
34927;DHT22;21132;48.308;14.274;2022-12-10T01:16:57;7.40;64.90
34927;DHT22;21132;48.308;14.274;2022-12-10T01:19:23;7.40;64.90
34927;DHT22;21132;48.308;14.274;2022-12-10T01:21:51;7.40;64.80
34927;DHT22;21132;48.308;14.274;2022-12-10T01:24:17;7.40;64.80
34927;DHT22;21132;48.308;14.274;2022-12-10T01:26:42;7.40;64.80
34927;DHT22;21132;48.308;14.274;2022-12-10T01:29:10;7.50;64.90
34927;DHT22;21132;48.308;14.274;2022-12-10T01:31:37;7.50;64.80
34927;DHT22;21132;48.308;14.274;2022-12-10T01:34:09;7.50;64.80
34927;DHT22;21132;48.308;14.274;2022-12-10T01:36:39;7.50;64.80
34927;DHT22;21132;48.308;14.274;2022-12-10T01:39:07;7.50;64.80
34927;DHT22;21132;48.308;14.274;2022-12-10T01:41:41;7.50;64.70
34927;DHT22;21132;48.308;14.274;2022-12-10T01:46:35;7.50;64.60
34927;DHT22;21132;48.308;14.274;2022-12-10T01:49:05;7.50;64.60
34927;DHT22;21132;48.308;14.274;2022-12-10T01:51:33;7.50;64.60
34927;DHT22;21132;48.308;14.274;2022-12-10T01:54:02;7.60;64.70
34927;DHT22;21132;48.308;14.274;2022-12-10T01:56:29;7.60;64.60
34927;DHT22;21132;48.308;14.274;2022-12-10T01:58:56;7.60;64.50
34927;DHT22;21132;48.308;14.274;2022-12-10T02:07:25;7.60;64.50
34927;DHT22;21132;48.308;14.274;2022-12-10T02:12:53;7.60;64.40
34927;DHT22;21132;48.308;14.274;2022-12-10T02:15:24;7.60;64.50
34927;DHT22;21132;48.308;14.274;2022-12-10T02:18:03;7.60;64.30
34927;DHT22;21132;48.308;14.274;2022-12-10T02:20:35;7.60;64.20
34927;DHT22;21132;48.308;14.274;2022-12-10T02:23:11;7.60;64.40
34927;DHT22;21132;48.308;14.274;2022-12-10T02:30:58;7.60;64.40
34927;DHT22;21132;48.308;14.274;2022-12-10T02:33:26;7.60;64.30
34927;DHT22;21132;48.308;14.274;2022-12-10T02:35:54;7.50;64.00
34927;DHT22;21132;48.308;14.274;2022-12-10T02:38:28;7.50;64.00
34927;DHT22;21132;48.308;14.274;2022-12-10T02:41:02;7.50;64.00
34927;DHT22;21132;48.308;14.274;2022-12-10T02:43:30;7.50;63.90
34927;DHT22;21132;48.308;14.274;2022-12-10T02:46:00;7.50;63.80
34927;DHT22;21132;48.308;14.274;2022-12-10T02:48:28;7.40;63.60
34927;DHT22;21132;48.308;14.274;2022-12-10T02:50:54;7.30;63.60
34927;DHT22;21132;48.308;14.274;2022-12-10T02:53:20;7.20;63.50
34927;DHT22;21132;48.308;14.274;2022-12-10T03:01:59;7.00;64.00
34927;DHT22;21132;48.308;14.274;2022-12-10T03:04:44;6.90;64.20
34927;DHT22;21132;48.308;14.274;2022-12-10T03:07:22;6.90;64.50
34927;DHT22;21132;48.308;14.274;2022-12-10T03:09:53;6.80;64.60
34927;DHT22;21132;48.308;14.274;2022-12-10T03:12:30;6.80;64.80
34927;DHT22;21132;48.308;14.274;2022-12-10T03:15:03;6.80;65.00
34927;DHT22;21132;48.308;14.274;2022-12-10T03:17:32;6.80;65.10
34927;DHT22;21132;48.308;14.274;2022-12-10T03:19:59;6.80;65.20
34927;DHT22;21132;48.308;14.274;2022-12-10T03:22:26;6.80;65.30
34927;DHT22;21132;48.308;14.274;2022-12-10T03:24:53;6.80;65.40
34927;DHT22;21132;48.308;14.274;2022-12-10T03:27:23;6.80;65.40
34927;DHT22;21132;48.308;14.274;2022-12-10T03:29:51;6.80;65.50
34927;DHT22;21132;48.308;14.274;2022-12-10T03:32:20;6.90;65.50
34927;DHT22;21132;48.308;14.274;2022-12-10T03:34:49;6.90;65.50
34927;DHT22;21132;48.308;14.274;2022-12-10T03:37:17;6.90;65.50
34927;DHT22;21132;48.308;14.274;2022-12-10T03:39:43;6.90;65.50
34927;DHT22;21132;48.308;14.274;2022-12-10T03:42:09;6.90;65.50
34927;DHT22;21132;48.308;14.274;2022-12-10T03:44:37;7.00;65.60
34927;DHT22;21132;48.308;14.274;2022-12-10T03:47:05;7.00;65.60
34927;DHT22;21132;48.308;14.274;2022-12-10T03:49:31;7.00;66.30
34927;DHT22;21132;48.308;14.274;2022-12-10T03:51:57;7.00;65.50
34927;DHT22;21132;48.308;14.274;2022-12-10T03:54:23;7.00;65.40
34927;DHT22;21132;48.308;14.274;2022-12-10T03:56:49;7.00;65.40
34927;DHT22;21132;48.308;14.274;2022-12-10T03:59:15;7.00;65.40
34927;DHT22;21132;48.308;14.274;2022-12-10T04:01:41;7.00;65.30
34927;DHT22;21132;48.308;14.274;2022-12-10T04:04:07;7.10;65.40
34927;DHT22;21132;48.308;14.274;2022-12-10T04:06:33;7.10;65.40
34927;DHT22;21132;48.308;14.274;2022-12-10T04:08:59;7.10;65.40
34927;DHT22;21132;48.308;14.274;2022-12-10T04:11:25;7.10;65.30
34927;DHT22;21132;48.308;14.274;2022-12-10T04:13:51;7.20;65.40
34927;DHT22;21132;48.308;14.274;2022-12-10T04:16:36;7.20;65.30
34927;DHT22;21132;48.308;14.274;2022-12-10T04:19:08;7.20;65.20
34927;DHT22;21132;48.308;14.274;2022-12-10T04:21:36;7.20;65.20
34927;DHT22;21132;48.308;14.274;2022-12-10T04:24:23;7.20;65.20
34927;DHT22;21132;48.308;14.274;2022-12-10T04:27:13;7.30;65.20
34927;DHT22;21132;48.308;14.274;2022-12-10T04:29:40;7.30;65.10
34927;DHT22;21132;48.308;14.274;2022-12-10T04:32:07;7.30;65.00
34927;DHT22;21132;48.308;14.274;2022-12-10T04:34:34;7.30;65.00
34927;DHT22;21132;48.308;14.274;2022-12-10T04:37:01;7.30;65.00
34927;DHT22;21132;48.308;14.274;2022-12-10T04:39:27;7.30;65.00
34927;DHT22;21132;48.308;14.274;2022-12-10T04:41:53;7.30;65.00
34927;DHT22;21132;48.308;14.274;2022-12-10T04:44:20;7.40;65.00
34927;DHT22;21132;48.308;14.274;2022-12-10T04:46:46;7.40;65.00
34927;DHT22;21132;48.308;14.274;2022-12-10T04:49:13;7.40;65.00
34927;DHT22;21132;48.308;14.274;2022-12-10T04:51:39;7.40;64.90
34927;DHT22;21132;48.308;14.274;2022-12-10T04:54:06;7.40;64.80
34927;DHT22;21132;48.308;14.274;2022-12-10T04:56:32;7.40;64.80
34927;DHT22;21132;48.308;14.274;2022-12-10T04:58:59;7.50;64.80
34927;DHT22;21132;48.308;14.274;2022-12-10T05:01:25;7.50;64.80
34927;DHT22;21132;48.308;14.274;2022-12-10T05:03:52;7.50;64.80
34927;DHT22;21132;48.308;14.274;2022-12-10T05:06:19;7.50;64.70
34927;DHT22;21132;48.308;14.274;2022-12-10T05:08:45;7.50;64.70
34927;DHT22;21132;48.308;14.274;2022-12-10T05:11:16;7.40;64.60
34927;DHT22;21132;48.308;14.274;2022-12-10T05:13:43;7.40;64.70
34927;DHT22;21132;48.308;14.274;2022-12-10T05:16:10;7.40;64.80
34927;DHT22;21132;48.308;14.274;2022-12-10T05:18:37;7.40;64.90
34927;DHT22;21132;48.308;14.274;2022-12-10T05:21:06;7.40;64.90
34927;DHT22;21132;48.308;14.274;2022-12-10T05:23:35;7.50;65.10
34927;DHT22;21132;48.308;14.274;2022-12-10T05:26:04;7.50;65.10
34927;DHT22;21132;48.308;14.274;2022-12-10T05:28:32;7.40;64.90
34927;DHT22;21132;48.308;14.274;2022-12-10T05:30:59;7.40;64.90
34927;DHT22;21132;48.308;14.274;2022-12-10T05:33:25;7.40;65.00
34927;DHT22;21132;48.308;14.274;2022-12-10T05:36:11;7.40;65.10
34927;DHT22;21132;48.308;14.274;2022-12-10T05:38:37;7.40;65.20
34927;DHT22;21132;48.308;14.274;2022-12-10T05:41:12;7.40;65.20
34927;DHT22;21132;48.308;14.274;2022-12-10T05:43:39;7.50;65.30
34927;DHT22;21132;48.308;14.274;2022-12-10T05:46:07;7.50;65.30
34927;DHT22;21132;48.308;14.274;2022-12-10T05:48:34;7.50;65.20
34927;DHT22;21132;48.308;14.274;2022-12-10T05:51:05;7.50;65.20
34927;DHT22;21132;48.308;14.274;2022-12-10T05:53:31;7.50;65.20
34927;DHT22;21132;48.308;14.274;2022-12-10T05:56:02;7.60;65.20
34927;DHT22;21132;48.308;14.274;2022-12-10T05:58:29;7.60;65.20
34927;DHT22;21132;48.308;14.274;2022-12-10T06:00:56;7.60;65.20
34927;DHT22;21132;48.308;14.274;2022-12-10T06:03:23;7.60;65.10
34927;DHT22;21132;48.308;14.274;2022-12-10T06:05:49;7.60;65.00
34927;DHT22;21132;48.308;14.274;2022-12-10T06:08:14;7.70;65.10
34927;DHT22;21132;48.308;14.274;2022-12-10T06:10:40;7.70;65.00
34927;DHT22;21132;48.308;14.274;2022-12-10T06:13:06;7.70;65.00
34927;DHT22;21132;48.308;14.274;2022-12-10T06:15:32;7.70;65.00
34927;DHT22;21132;48.308;14.274;2022-12-10T06:17:58;7.70;64.90
34927;DHT22;21132;48.308;14.274;2022-12-10T06:20:25;7.70;64.90
34927;DHT22;21132;48.308;14.274;2022-12-10T06:22:52;7.70;64.90
34927;DHT22;21132;48.308;14.274;2022-12-10T06:25:18;7.70;64.80
34927;DHT22;21132;48.308;14.274;2022-12-10T06:27:44;7.70;64.80
34927;DHT22;21132;48.308;14.274;2022-12-10T06:30:11;7.70;64.70
34927;DHT22;21132;48.308;14.274;2022-12-10T06:32:37;7.70;64.70
34927;DHT22;21132;48.308;14.274;2022-12-10T06:35:03;7.70;64.70
34927;DHT22;21132;48.308;14.274;2022-12-10T06:37:29;7.60;64.70
34927;DHT22;21132;48.308;14.274;2022-12-10T06:39:55;7.60;64.70
34927;DHT22;21132;48.308;14.274;2022-12-10T06:42:21;7.60;64.70
34927;DHT22;21132;48.308;14.274;2022-12-10T06:44:47;7.60;64.70
34927;DHT22;21132;48.308;14.274;2022-12-10T06:47:13;7.60;64.80
34927;DHT22;21132;48.308;14.274;2022-12-10T06:49:40;7.60;64.80
34927;DHT22;21132;48.308;14.274;2022-12-10T06:52:06;7.60;64.80
34927;DHT22;21132;48.308;14.274;2022-12-10T06:54:33;7.60;64.80
34927;DHT22;21132;48.308;14.274;2022-12-10T06:56:58;7.60;64.80
34927;DHT22;21132;48.308;14.274;2022-12-10T06:59:25;7.60;64.80
34927;DHT22;21132;48.308;14.274;2022-12-10T07:01:51;7.60;64.80
34927;DHT22;21132;48.308;14.274;2022-12-10T07:04:17;7.60;64.90
34927;DHT22;21132;48.308;14.274;2022-12-10T07:06:43;7.60;65.00
34927;DHT22;21132;48.308;14.274;2022-12-10T07:09:09;7.50;64.80
34927;DHT22;21132;48.308;14.274;2022-12-10T07:11:35;7.50;64.90
34927;DHT22;21132;48.308;14.274;2022-12-10T07:14:01;7.60;65.00
34927;DHT22;21132;48.308;14.274;2022-12-10T07:16:29;7.60;65.00
34927;DHT22;21132;48.308;14.274;2022-12-10T07:18:58;7.60;64.90
34927;DHT22;21132;48.308;14.274;2022-12-10T07:21:34;7.60;64.90
34927;DHT22;21132;48.308;14.274;2022-12-10T07:24:06;7.60;64.90
34927;DHT22;21132;48.308;14.274;2022-12-10T07:26:37;7.60;64.90
34927;DHT22;21132;48.308;14.274;2022-12-10T07:29:05;7.60;64.90
34927;DHT22;21132;48.308;14.274;2022-12-10T07:31:31;7.60;65.00
34927;DHT22;21132;48.308;14.274;2022-12-10T07:33:58;7.60;65.00
34927;DHT22;21132;48.308;14.274;2022-12-10T07:36:25;7.60;65.00
34927;DHT22;21132;48.308;14.274;2022-12-10T07:38:52;7.60;65.10
34927;DHT22;21132;48.308;14.274;2022-12-10T07:41:18;7.60;65.10
34927;DHT22;21132;48.308;14.274;2022-12-10T07:43:45;7.70;65.20
34927;DHT22;21132;48.308;14.274;2022-12-10T07:46:17;7.80;65.20
34927;DHT22;21132;48.308;14.274;2022-12-10T07:48:45;7.80;65.30
34927;DHT22;21132;48.308;14.274;2022-12-10T07:51:11;7.80;65.10
34927;DHT22;21132;48.308;14.274;2022-12-10T07:53:37;7.90;65.00
34927;DHT22;21132;48.308;14.274;2022-12-10T07:56:03;7.90;64.90
34927;DHT22;21132;48.308;14.274;2022-12-10T07:58:29;7.90;64.80
34927;DHT22;21132;48.308;14.274;2022-12-10T08:00:55;8.00;64.80
34927;DHT22;21132;48.308;14.274;2022-12-10T08:03:21;8.00;64.80
34927;DHT22;21132;48.308;14.274;2022-12-10T08:05:47;8.10;64.80
34927;DHT22;21132;48.308;14.274;2022-12-10T08:08:13;8.20;64.90
34927;DHT22;21132;48.308;14.274;2022-12-10T08:10:39;8.20;64.50
34927;DHT22;21132;48.308;14.274;2022-12-10T08:13:05;8.20;64.30
34927;DHT22;21132;48.308;14.274;2022-12-10T08:15:32;8.30;64.20
34927;DHT22;21132;48.308;14.274;2022-12-10T08:17:58;8.30;64.20
34927;DHT22;21132;48.308;14.274;2022-12-10T08:20:24;8.40;64.20
34927;DHT22;21132;48.308;14.274;2022-12-10T08:22:50;8.40;63.90
34927;DHT22;21132;48.308;14.274;2022-12-10T08:25:16;8.40;63.70
34927;DHT22;21132;48.308;14.274;2022-12-10T08:27:43;8.40;63.60
34927;DHT22;21132;48.308;14.274;2022-12-10T08:30:09;8.40;63.40
34927;DHT22;21132;48.308;14.274;2022-12-10T08:32:35;8.40;63.30
34927;DHT22;21132;48.308;14.274;2022-12-10T08:35:00;8.40;63.40
34927;DHT22;21132;48.308;14.274;2022-12-10T08:37:26;8.50;63.50
34927;DHT22;21132;48.308;14.274;2022-12-10T08:39:52;8.50;63.50
34927;DHT22;21132;48.308;14.274;2022-12-10T08:42:18;8.50;63.50
34927;DHT22;21132;48.308;14.274;2022-12-10T08:44:44;8.50;63.20
34927;DHT22;21132;48.308;14.274;2022-12-10T08:47:10;8.60;63.20
34927;DHT22;21132;48.308;14.274;2022-12-10T08:49:36;8.60;63.30
34927;DHT22;21132;48.308;14.274;2022-12-10T08:52:02;8.60;63.20
34927;DHT22;21132;48.308;14.274;2022-12-10T08:54:27;8.70;63.20
34927;DHT22;21132;48.308;14.274;2022-12-10T08:56:53;8.70;63.20
34927;DHT22;21132;48.308;14.274;2022-12-10T08:59:19;8.70;63.20
34927;DHT22;21132;48.308;14.274;2022-12-10T09:01:45;8.80;63.20
34927;DHT22;21132;48.308;14.274;2022-12-10T09:04:11;8.80;62.90
34927;DHT22;21132;48.308;14.274;2022-12-10T09:06:38;8.90;63.00
34927;DHT22;21132;48.308;14.274;2022-12-10T09:09:04;8.90;62.90
34927;DHT22;21132;48.308;14.274;2022-12-10T09:11:32;8.90;62.80
34927;DHT22;21132;48.308;14.274;2022-12-10T09:13:59;8.90;62.60
34927;DHT22;21132;48.308;14.274;2022-12-10T09:16:34;8.90;62.60
34927;DHT22;21132;48.308;14.274;2022-12-10T09:19:01;8.90;62.60
34927;DHT22;21132;48.308;14.274;2022-12-10T09:21:28;9.00;62.50
34927;DHT22;21132;48.308;14.274;2022-12-10T09:23:56;9.00;62.30
34927;DHT22;21132;48.308;14.274;2022-12-10T09:26:23;9.00;62.20
34927;DHT22;21132;48.308;14.274;2022-12-10T09:28:49;9.00;62.10
34927;DHT22;21132;48.308;14.274;2022-12-10T09:31:16;9.00;62.10
34927;DHT22;21132;48.308;14.274;2022-12-10T09:33:44;9.00;62.20
34927;DHT22;21132;48.308;14.274;2022-12-10T09:36:11;9.00;62.20
34927;DHT22;21132;48.308;14.274;2022-12-10T09:38:39;9.00;62.20
34927;DHT22;21132;48.308;14.274;2022-12-10T09:43:46;9.10;62.10
34927;DHT22;21132;48.308;14.274;2022-12-10T09:51:34;9.10;61.60
34927;DHT22;21132;48.308;14.274;2022-12-10T09:54:03;9.20;61.60
34927;DHT22;21132;48.308;14.274;2022-12-10T09:56:33;9.20;61.30
34927;DHT22;21132;48.308;14.274;2022-12-10T09:59:03;9.10;61.30
34927;DHT22;21132;48.308;14.274;2022-12-10T10:01:34;9.10;61.30
34927;DHT22;21132;48.308;14.274;2022-12-10T10:04:03;9.10;61.10
34927;DHT22;21132;48.308;14.274;2022-12-10T10:06:29;9.10;61.20
34927;DHT22;21132;48.308;14.274;2022-12-10T10:08:58;9.10;61.10
34927;DHT22;21132;48.308;14.274;2022-12-10T10:11:28;9.10;61.10
34927;DHT22;21132;48.308;14.274;2022-12-10T10:14:13;9.00;61.30
34927;DHT22;21132;48.308;14.274;2022-12-10T10:17:01;9.00;61.30
34927;DHT22;21132;48.308;14.274;2022-12-10T10:19:30;9.00;61.30
34927;DHT22;21132;48.308;14.274;2022-12-10T10:21:56;9.00;61.30
34927;DHT22;21132;48.308;14.274;2022-12-10T10:24:34;9.00;61.40
34927;DHT22;21132;48.308;14.274;2022-12-10T10:27:16;9.00;61.50
34927;DHT22;21132;48.308;14.274;2022-12-10T10:29:45;9.00;61.60
34927;DHT22;21132;48.308;14.274;2022-12-10T10:32:18;9.00;61.90
34927;DHT22;21132;48.308;14.274;2022-12-10T10:34:45;9.10;61.90
34927;DHT22;21132;48.308;14.274;2022-12-10T10:37:23;9.20;62.10
34927;DHT22;21132;48.308;14.274;2022-12-10T10:39:51;9.30;62.10
34927;DHT22;21132;48.308;14.274;2022-12-10T10:45:06;9.40;61.90
34927;DHT22;21132;48.308;14.274;2022-12-10T10:47:50;9.50;62.60
34927;DHT22;21132;48.308;14.274;2022-12-10T10:50:28;9.60;61.00
34927;DHT22;21132;48.308;14.274;2022-12-10T10:52:53;9.70;60.60
34927;DHT22;21132;48.308;14.274;2022-12-10T10:55:33;9.70;60.10
34927;DHT22;21132;48.308;14.274;2022-12-10T10:58:01;9.60;59.80
34927;DHT22;21132;48.308;14.274;2022-12-10T11:00:27;9.60;59.90
34927;DHT22;21132;48.308;14.274;2022-12-10T11:02:53;9.50;59.90
34927;DHT22;21132;48.308;14.274;2022-12-10T11:05:24;9.50;60.00
34927;DHT22;21132;48.308;14.274;2022-12-10T11:08:02;9.40;59.80
34927;DHT22;21132;48.308;14.274;2022-12-10T11:10:29;9.30;59.70
34927;DHT22;21132;48.308;14.274;2022-12-10T11:13:06;9.20;59.80
34927;DHT22;21132;48.308;14.274;2022-12-10T11:15:40;9.20;59.90
34927;DHT22;21132;48.308;14.274;2022-12-10T11:21:07;9.00;60.50
34927;DHT22;21132;48.308;14.274;2022-12-10T11:23:43;9.00;60.40
34927;DHT22;21132;48.308;14.274;2022-12-10T11:29:02;8.90;60.70
34927;DHT22;21132;48.308;14.274;2022-12-10T11:37:23;8.80;61.60
34927;DHT22;21132;48.308;14.274;2022-12-10T11:40:12;8.80;61.40
34927;DHT22;21132;48.308;14.274;2022-12-10T11:45:27;8.90;61.30
34927;DHT22;21132;48.308;14.274;2022-12-10T11:50:37;9.00;61.30
34927;DHT22;21132;48.308;14.274;2022-12-10T11:58:49;9.00;60.90
34927;DHT22;21132;48.308;14.274;2022-12-10T12:07:04;9.00;60.70
34927;DHT22;21132;48.308;14.274;2022-12-10T12:09:47;8.90;60.60
34927;DHT22;21132;48.308;14.274;2022-12-10T12:12:50;9.00;60.60
34927;DHT22;21132;48.308;14.274;2022-12-10T12:15:19;8.90;60.80
34927;DHT22;21132;48.308;14.274;2022-12-10T12:18:21;8.90;61.00
34927;DHT22;21132;48.308;14.274;2022-12-10T12:20:53;8.90;61.10
34927;DHT22;21132;48.308;14.274;2022-12-10T12:26:38;9.00;61.20
34927;DHT22;21132;48.308;14.274;2022-12-10T12:32:04;9.00;61.40
34927;DHT22;21132;48.308;14.274;2022-12-10T12:34:50;9.10;61.60
34927;DHT22;21132;48.308;14.274;2022-12-10T12:37:18;9.10;61.50
34927;DHT22;21132;48.308;14.274;2022-12-10T12:40:07;9.20;61.40
34927;DHT22;21132;48.308;14.274;2022-12-10T12:43:03;9.20;61.30
34927;DHT22;21132;48.308;14.274;2022-12-10T12:45:45;9.20;61.10
34927;DHT22;21132;48.308;14.274;2022-12-10T12:48:19;9.20;60.70
34927;DHT22;21132;48.308;14.274;2022-12-10T12:53:20;9.20;60.50
34927;DHT22;21132;48.308;14.274;2022-12-10T12:58:22;9.20;60.80
34927;DHT22;21132;48.308;14.274;2022-12-10T13:00:54;9.20;61.10
34927;DHT22;21132;48.308;14.274;2022-12-10T13:03:36;9.20;61.20
34927;DHT22;21132;48.308;14.274;2022-12-10T13:06:18;9.30;61.30
34927;DHT22;21132;48.308;14.274;2022-12-10T13:11:34;9.30;61.30
34927;DHT22;21132;48.308;14.274;2022-12-10T13:27:19;9.30;60.30
34927;DHT22;21132;48.308;14.274;2022-12-10T13:29:56;9.30;60.20
34927;DHT22;21132;48.308;14.274;2022-12-10T13:46:57;9.00;60.80
34927;DHT22;21132;48.308;14.274;2022-12-10T13:49:28;8.90;60.70
34927;DHT22;21132;48.308;14.274;2022-12-10T13:52:03;8.90;60.80
34927;DHT22;21132;48.308;14.274;2022-12-10T14:00:21;8.70;61.20
34927;DHT22;21132;48.308;14.274;2022-12-10T14:06:03;8.60;61.60
34927;DHT22;21132;48.308;14.274;2022-12-10T14:08:36;8.50;61.80
34927;DHT22;21132;48.308;14.274;2022-12-10T14:11:06;8.50;62.00
34927;DHT22;21132;48.308;14.274;2022-12-10T14:13:42;8.50;63.00
34927;DHT22;21132;48.308;14.274;2022-12-10T14:16:14;8.50;62.30
34927;DHT22;21132;48.308;14.274;2022-12-10T14:18:53;8.40;62.20
34927;DHT22;21132;48.308;14.274;2022-12-10T14:21:21;8.40;62.20
34927;DHT22;21132;48.308;14.274;2022-12-10T14:23:48;8.40;62.20
34927;DHT22;21132;48.308;14.274;2022-12-10T14:26:17;8.30;62.20
34927;DHT22;21132;48.308;14.274;2022-12-10T14:28:49;8.30;62.20
34927;DHT22;21132;48.308;14.274;2022-12-10T14:31:21;8.20;62.30
34927;DHT22;21132;48.308;14.274;2022-12-10T14:33:50;8.20;62.50
34927;DHT22;21132;48.308;14.274;2022-12-10T14:36:26;8.10;62.60
34927;DHT22;21132;48.308;14.274;2022-12-10T14:38:52;8.10;62.80
34927;DHT22;21132;48.308;14.274;2022-12-10T14:41:22;8.00;63.00
34927;DHT22;21132;48.308;14.274;2022-12-10T14:43:49;8.00;63.10
34927;DHT22;21132;48.308;14.274;2022-12-10T14:46:27;8.00;63.30
34927;DHT22;21132;48.308;14.274;2022-12-10T14:48:53;8.00;63.50
34927;DHT22;21132;48.308;14.274;2022-12-10T14:51:23;7.90;63.50
34927;DHT22;21132;48.308;14.274;2022-12-10T14:53:53;7.90;63.60
34927;DHT22;21132;48.308;14.274;2022-12-10T14:56:26;7.90;63.80
34927;DHT22;21132;48.308;14.274;2022-12-10T15:01:32;7.90;63.60
34927;DHT22;21132;48.308;14.274;2022-12-10T15:04:03;7.80;63.70
34927;DHT22;21132;48.308;14.274;2022-12-10T15:06:33;7.80;63.80
34927;DHT22;21132;48.308;14.274;2022-12-10T15:08:59;7.70;63.90
34927;DHT22;21132;48.308;14.274;2022-12-10T15:11:27;7.70;64.00
34927;DHT22;21132;48.308;14.274;2022-12-10T15:13:56;7.70;64.10
34927;DHT22;21132;48.308;14.274;2022-12-10T15:19:24;7.70;64.50
34927;DHT22;21132;48.308;14.274;2022-12-10T15:21:52;7.60;64.40
34927;DHT22;21132;48.308;14.274;2022-12-10T15:24:35;7.60;64.40
34927;DHT22;21132;48.308;14.274;2022-12-10T15:27:02;7.60;64.50
34927;DHT22;21132;48.308;14.274;2022-12-10T15:29:40;7.50;64.50
34927;DHT22;21132;48.308;14.274;2022-12-10T15:32:14;7.50;64.60
34927;DHT22;21132;48.308;14.274;2022-12-10T15:34:58;7.50;64.80
34927;DHT22;21132;48.308;14.274;2022-12-10T15:40:00;7.50;64.90
34927;DHT22;21132;48.308;14.274;2022-12-10T15:42:41;7.60;65.00
34927;DHT22;21132;48.308;14.274;2022-12-10T15:47:42;7.60;65.10
34927;DHT22;21132;48.308;14.274;2022-12-10T15:50:09;7.60;65.10
34927;DHT22;21132;48.308;14.274;2022-12-10T15:52:35;7.70;65.30
34927;DHT22;21132;48.308;14.274;2022-12-10T15:55:02;7.70;65.30
34927;DHT22;21132;48.308;14.274;2022-12-10T15:57:33;7.80;65.40
34927;DHT22;21132;48.308;14.274;2022-12-10T16:00:03;7.80;65.20
34927;DHT22;21132;48.308;14.274;2022-12-10T16:05:25;7.80;64.90
34927;DHT22;21132;48.308;14.274;2022-12-10T16:07:54;7.80;64.90
34927;DHT22;21132;48.308;14.274;2022-12-10T16:10:22;7.80;65.00
34927;DHT22;21132;48.308;14.274;2022-12-10T16:12:59;7.80;64.90
34927;DHT22;21132;48.308;14.274;2022-12-10T16:15:29;7.80;64.90
34927;DHT22;21132;48.308;14.274;2022-12-10T16:17:56;7.80;64.90
34927;DHT22;21132;48.308;14.274;2022-12-10T16:20:27;7.80;64.90
34927;DHT22;21132;48.308;14.274;2022-12-10T16:22:56;7.80;65.00
34927;DHT22;21132;48.308;14.274;2022-12-10T16:25:24;7.80;64.90
34927;DHT22;21132;48.308;14.274;2022-12-10T16:27:51;7.80;64.90
34927;DHT22;21132;48.308;14.274;2022-12-10T16:30:24;7.80;64.80
34927;DHT22;21132;48.308;14.274;2022-12-10T16:32:51;7.80;64.80
34927;DHT22;21132;48.308;14.274;2022-12-10T16:35:19;7.90;64.80
34927;DHT22;21132;48.308;14.274;2022-12-10T16:37:48;7.80;64.70
34927;DHT22;21132;48.308;14.274;2022-12-10T16:40:22;7.80;64.70
34927;DHT22;21132;48.308;14.274;2022-12-10T16:42:49;7.80;64.70
34927;DHT22;21132;48.308;14.274;2022-12-10T16:45:35;7.80;64.80
34927;DHT22;21132;48.308;14.274;2022-12-10T16:48:02;7.70;64.70
34927;DHT22;21132;48.308;14.274;2022-12-10T16:50:29;7.70;64.70
34927;DHT22;21132;48.308;14.274;2022-12-10T16:52:57;7.70;64.70
34927;DHT22;21132;48.308;14.274;2022-12-10T16:55:25;7.70;64.70
34927;DHT22;21132;48.308;14.274;2022-12-10T16:57:52;7.70;64.60
34927;DHT22;21132;48.308;14.274;2022-12-10T17:00:23;7.60;64.60
34927;DHT22;21132;48.308;14.274;2022-12-10T17:02:51;7.60;64.60
34927;DHT22;21132;48.308;14.274;2022-12-10T17:05:28;7.60;64.70
34927;DHT22;21132;48.308;14.274;2022-12-10T17:07:54;7.50;64.50
34927;DHT22;21132;48.308;14.274;2022-12-10T17:10:20;7.50;64.60
34927;DHT22;21132;48.308;14.274;2022-12-10T17:13:09;7.50;64.60
34927;DHT22;21132;48.308;14.274;2022-12-10T17:15:36;7.50;64.70
34927;DHT22;21132;48.308;14.274;2022-12-10T17:18:02;7.50;65.40
34927;DHT22;21132;48.308;14.274;2022-12-10T17:20:28;7.40;64.70
34927;DHT22;21132;48.308;14.274;2022-12-10T17:22:54;7.40;64.70
34927;DHT22;21132;48.308;14.274;2022-12-10T17:25:21;7.40;64.80
34927;DHT22;21132;48.308;14.274;2022-12-10T17:27:47;7.30;64.80
34927;DHT22;21132;48.308;14.274;2022-12-10T17:30:14;7.30;64.80
34927;DHT22;21132;48.308;14.274;2022-12-10T17:32:41;7.20;64.90
34927;DHT22;21132;48.308;14.274;2022-12-10T17:35:08;7.20;65.10
34927;DHT22;21132;48.308;14.274;2022-12-10T17:37:35;7.30;65.20
34927;DHT22;21132;48.308;14.274;2022-12-10T17:40:09;7.30;65.30
34927;DHT22;21132;48.308;14.274;2022-12-10T17:42:37;7.20;65.30
34927;DHT22;21132;48.308;14.274;2022-12-10T17:45:03;7.30;65.40
34927;DHT22;21132;48.308;14.274;2022-12-10T17:47:29;7.30;65.40
34927;DHT22;21132;48.308;14.274;2022-12-10T17:49:58;7.20;66.10